createdAt,value
2022-12-06T00:02:13.934Z,7.50
2022-12-06T00:04:40.981Z,6.00
2022-12-06T00:07:08.218Z,8.50
2022-12-06T00:09:35.174Z,7.00
2022-12-06T00:12:02.104Z,6.00
2022-12-06T00:14:29.129Z,8.00
2022-12-06T00:16:56.170Z,4.25
2022-12-06T00:19:24.067Z,6.25
2022-12-06T00:21:51.659Z,5.50
2022-12-06T00:24:21.848Z,5.00
2022-12-06T00:26:50.530Z,3.00
2022-12-06T00:29:20.877Z,6.75
2022-12-06T00:31:48.482Z,3.50
2022-12-06T00:34:15.871Z,2.50
2022-12-06T00:36:44.052Z,3.00
2022-12-06T00:39:14.415Z,4.25
2022-12-06T00:41:42.229Z,1.25
2022-12-06T00:44:10.528Z,4.75
2022-12-06T00:46:38.274Z,1.00
2022-12-06T00:49:07.990Z,1.75
2022-12-06T00:51:36.675Z,3.00
2022-12-06T00:54:04.010Z,3.00
2022-12-06T00:56:31.909Z,3.00
2022-12-06T00:58:58.932Z,3.00
2022-12-06T01:01:30.422Z,1.50
2022-12-06T01:04:00.114Z,5.50
2022-12-06T01:06:30.239Z,9.75
2022-12-06T01:09:00.866Z,13.00
2022-12-06T01:11:29.353Z,30.25
2022-12-06T01:13:56.925Z,33.25
2022-12-06T01:16:27.220Z,24.25
2022-12-06T01:18:57.022Z,23.50
2022-12-06T01:21:25.223Z,20.50
2022-12-06T01:23:54.599Z,14.75
2022-12-06T01:26:33.446Z,6.25
2022-12-06T01:29:01.614Z,11.00
2022-12-06T01:31:37.170Z,7.75
2022-12-06T01:34:06.353Z,9.00
2022-12-06T01:36:33.409Z,10.50
2022-12-06T01:39:01.993Z,11.25
2022-12-06T01:41:29.143Z,12.25
2022-12-06T01:43:57.089Z,12.50
2022-12-06T01:46:33.130Z,14.25
2022-12-06T01:49:18.571Z,10.00
2022-12-06T01:51:54.801Z,19.50
2022-12-06T01:54:23.802Z,11.50
2022-12-06T01:56:54.187Z,15.25
2022-12-06T01:59:22.172Z,21.00
2022-12-06T02:01:49.985Z,22.00
2022-12-06T02:04:19.242Z,33.75
2022-12-06T02:07:03.438Z,32.75
2022-12-06T02:09:47.763Z,38.00
2022-12-06T02:12:39.057Z,33.00
2022-12-06T02:15:28.858Z,33.25
2022-12-06T02:18:36.624Z,22.75
2022-12-06T02:21:58.113Z,21.25
2022-12-06T02:25:08.274Z,22.75
2022-12-06T02:27:52.488Z,23.00
2022-12-06T02:30:29.917Z,14.50
2022-12-06T02:33:06.040Z,19.00
2022-12-06T02:35:42.092Z,24.00
2022-12-06T02:38:17.839Z,23.50
2022-12-06T02:40:55.857Z,15.25
2022-12-06T02:43:27.812Z,20.75
2022-12-06T02:45:59.621Z,19.75
2022-12-06T02:48:27.198Z,16.75
2022-12-06T02:51:03.795Z,15.00
2022-12-06T02:53:34.748Z,7.50
2022-12-06T02:56:02.600Z,7.25
2022-12-06T02:58:35.909Z,6.50
2022-12-06T03:01:10.425Z,1.50
2022-12-06T03:03:55.631Z,6.00
2022-12-06T03:06:34.831Z,6.00
2022-12-06T03:09:24.950Z,5.50
2022-12-06T03:12:03.734Z,6.00
2022-12-06T03:14:39.594Z,5.75
2022-12-06T03:17:22.208Z,2.75
2022-12-06T03:19:56.274Z,5.75
2022-12-06T03:22:29.894Z,5.00
2022-12-06T03:24:59.015Z,8.25
2022-12-06T03:27:27.796Z,7.25
2022-12-06T03:29:58.445Z,11.50
2022-12-06T03:32:31.399Z,10.25
2022-12-06T03:35:02.355Z,9.50
2022-12-06T03:37:33.169Z,8.50
2022-12-06T03:40:10.456Z,7.50
2022-12-06T03:42:38.116Z,5.00
2022-12-06T03:45:06.139Z,5.25
2022-12-06T03:47:45.037Z,5.00
2022-12-06T03:50:19.668Z,3.00
2022-12-06T03:52:47.629Z,2.00
2022-12-06T03:55:14.859Z,4.50
2022-12-06T03:57:41.928Z,1.00
2022-12-06T04:00:09.875Z,1.00
2022-12-06T04:02:36.954Z,1.50
2022-12-06T04:05:04.233Z,1.00
2022-12-06T04:07:32.119Z,0.00
2022-12-06T04:10:05.071Z,1.75
2022-12-06T04:12:52.173Z,1.50
2022-12-06T04:15:20.975Z,0.00
2022-12-06T04:18:06.720Z,1.00
2022-12-06T04:20:53.920Z,0.75
2022-12-06T04:23:21.628Z,0.25
2022-12-06T04:25:48.858Z,0.00
2022-12-06T04:28:34.256Z,0.00
2022-12-06T04:31:22.249Z,0.00
2022-12-06T04:34:08.919Z,0.75
2022-12-06T04:36:55.403Z,6.00
2022-12-06T04:39:22.457Z,5.00
2022-12-06T04:42:08.379Z,2.25
2022-12-06T04:44:35.479Z,2.00
2022-12-06T04:47:03.081Z,3.00
2022-12-06T04:49:30.137Z,2.25
2022-12-06T04:51:57.084Z,3.25
2022-12-06T04:54:24.854Z,5.50
2022-12-06T04:56:52.896Z,5.00
2022-12-06T04:59:20.408Z,10.00
2022-12-06T05:01:47.420Z,9.25
2022-12-06T05:04:14.852Z,3.00
2022-12-06T05:06:41.784Z,3.75
2022-12-06T05:09:08.931Z,2.00
2022-12-06T05:11:36.297Z,1.25
2022-12-06T05:14:03.739Z,0.25
2022-12-06T05:16:30.779Z,0.00
2022-12-06T05:18:57.878Z,0.50
2022-12-06T05:21:26.307Z,3.50
2022-12-06T05:23:55.587Z,3.00
2022-12-06T05:26:27.981Z,2.00
2022-12-06T05:28:56.201Z,2.00
2022-12-06T05:31:24.282Z,0.50
2022-12-06T05:33:52.684Z,0.25
2022-12-06T05:36:24.958Z,1.00
2022-12-06T05:38:53.031Z,2.50
2022-12-06T05:41:22.213Z,2.75
2022-12-06T05:43:49.574Z,2.00
2022-12-06T05:46:16.596Z,12.75
2022-12-06T05:48:43.689Z,11.00
2022-12-06T05:51:10.820Z,6.25
2022-12-06T05:53:37.854Z,6.00
2022-12-06T05:56:10.546Z,21.75
2022-12-06T05:58:37.559Z,20.50
2022-12-06T06:01:06.357Z,16.75
2022-12-06T06:03:33.494Z,11.25
2022-12-06T06:06:02.011Z,19.00
2022-12-06T06:08:30.414Z,16.50
2022-12-06T06:10:59.486Z,8.00
2022-12-06T06:13:26.736Z,9.00
2022-12-06T06:15:53.751Z,6.50
2022-12-06T06:18:20.972Z,4.00
2022-12-06T06:20:57.314Z,1.00
2022-12-06T06:23:25.053Z,13.00
2022-12-06T06:25:52.102Z,15.00
2022-12-06T06:28:19.158Z,15.00
2022-12-06T06:30:46.717Z,8.00
2022-12-06T06:33:14.501Z,11.00
2022-12-06T06:35:42.165Z,8.00
2022-12-06T06:38:09.211Z,5.50
2022-12-06T06:40:36.240Z,2.00
2022-12-06T06:43:18.726Z,3.50
2022-12-06T06:46:03.031Z,3.00
2022-12-06T06:48:32.524Z,2.50
2022-12-06T06:51:07.331Z,0.00
2022-12-06T06:53:34.785Z,3.00
2022-12-06T06:56:02.876Z,11.00
2022-12-06T06:58:29.926Z,6.25
2022-12-06T07:01:01.982Z,5.00
2022-12-06T07:03:29.732Z,3.00
2022-12-06T07:06:01.596Z,7.00
2022-12-06T07:08:30.076Z,11.75
2022-12-06T07:10:57.934Z,8.50
2022-12-06T07:13:26.815Z,12.75
2022-12-06T07:15:53.998Z,11.25
2022-12-06T07:18:21.335Z,10.25
2022-12-06T07:20:49.508Z,15.00
2022-12-06T07:23:16.658Z,12.00
2022-12-06T07:25:43.603Z,9.00
2022-12-06T07:28:10.564Z,8.25
2022-12-06T07:30:37.588Z,11.00
2022-12-06T07:33:04.598Z,10.75
2022-12-06T07:35:55.388Z,9.00
2022-12-06T07:38:19.265Z,7.00
2022-12-06T07:43:52.117Z,15.50
2022-12-06T07:46:19.111Z,9.75
2022-12-06T07:48:46.000Z,6.75
2022-12-06T07:51:12.973Z,7.00
2022-12-06T07:53:39.991Z,4.25
2022-12-06T07:56:08.297Z,8.75
2022-12-06T07:58:35.276Z,7.00
2022-12-06T08:01:04.220Z,5.50
2022-12-06T08:03:31.439Z,3.50
2022-12-06T08:05:58.497Z,2.00
2022-12-06T08:08:28.842Z,0.75
2022-12-06T08:11:00.186Z,1.00
2022-12-06T08:13:27.758Z,0.75
2022-12-06T08:15:54.892Z,2.00
2022-12-06T08:18:22.338Z,7.75
2022-12-06T08:20:49.324Z,2.00
2022-12-06T08:23:16.341Z,3.50
2022-12-06T08:25:43.242Z,1.50
2022-12-06T08:28:10.230Z,1.00
2022-12-06T08:30:40.845Z,1.00
2022-12-06T08:33:07.784Z,1.00
2022-12-06T08:35:37.312Z,1.00
2022-12-06T08:38:04.309Z,0.75
2022-12-06T08:40:31.287Z,0.00
2022-12-06T08:42:58.231Z,0.00
2022-12-06T08:45:25.120Z,0.00
2022-12-06T08:47:52.093Z,1.00
2022-12-06T08:50:19.302Z,1.00
2022-12-06T08:52:46.223Z,1.00
2022-12-06T08:55:13.164Z,0.00
2022-12-06T08:57:40.075Z,0.00
2022-12-06T09:00:08.287Z,1.25
2022-12-06T09:02:35.376Z,1.00
2022-12-06T09:05:02.468Z,1.00
2022-12-06T09:07:29.367Z,1.00
2022-12-06T09:09:56.441Z,1.00
2022-12-06T09:12:24.053Z,1.00
2022-12-06T09:14:50.959Z,0.00
2022-12-06T09:17:17.904Z,0.00
2022-12-06T09:19:44.884Z,1.00
2022-12-06T09:22:11.786Z,1.00
2022-12-06T09:24:38.867Z,1.00
2022-12-06T09:27:05.773Z,0.25
2022-12-06T09:29:40.183Z,1.00
2022-12-06T09:32:07.649Z,0.00
2022-12-06T09:34:34.555Z,1.00
2022-12-06T09:37:12.183Z,0.00
2022-12-06T09:39:52.037Z,0.00
2022-12-06T09:42:21.626Z,0.00
2022-12-06T09:45:25.333Z,0.00
2022-12-06T09:48:37.047Z,0.00
2022-12-06T09:51:31.919Z,1.00
2022-12-06T09:54:34.051Z,0.00
2022-12-06T09:57:17.790Z,0.00
2022-12-06T09:59:56.494Z,0.00
2022-12-06T10:02:48.702Z,0.75
2022-12-06T10:05:27.716Z,0.50
2022-12-06T10:08:10.375Z,0.00
2022-12-06T10:11:08.132Z,0.00
2022-12-06T10:14:34.186Z,0.00
2022-12-06T10:17:09.737Z,0.00
2022-12-06T10:20:12.245Z,0.00
2022-12-06T10:23:12.682Z,0.00
2022-12-06T10:26:01.394Z,0.25
2022-12-06T10:28:34.484Z,1.25
2022-12-06T10:31:12.974Z,1.00
2022-12-06T10:33:51.845Z,3.00
2022-12-06T10:36:42.316Z,3.00
2022-12-06T10:39:20.748Z,3.50
2022-12-06T10:42:13.994Z,2.75
2022-12-06T10:44:57.626Z,8.00
2022-12-06T10:47:34.707Z,10.50
2022-12-06T10:50:31.042Z,28.50
2022-12-06T10:53:15.499Z,31.00
2022-12-06T10:55:59.546Z,26.00
2022-12-06T10:58:39.288Z,29.50
2022-12-06T11:01:16.929Z,27.75
2022-12-06T11:04:00.319Z,24.75
2022-12-06T11:06:54.661Z,29.00
2022-12-06T11:09:40.488Z,29.00
2022-12-06T11:12:25.372Z,30.75
2022-12-06T11:15:07.547Z,30.25
2022-12-06T11:17:39.496Z,22.25
2022-12-06T11:20:15.393Z,16.00
2022-12-06T11:22:51.558Z,16.00
2022-12-06T11:25:27.713Z,10.25
2022-12-06T11:28:13.584Z,11.00
2022-12-06T11:30:40.526Z,6.75
2022-12-06T11:33:10.276Z,7.50
2022-12-06T11:35:37.390Z,7.00
2022-12-06T11:38:07.463Z,3.00
2022-12-06T11:40:42.546Z,3.00
2022-12-06T11:43:18.930Z,1.00
2022-12-06T11:45:48.299Z,0.75
2022-12-06T11:48:22.085Z,0.75
2022-12-06T11:50:52.040Z,0.75
2022-12-06T11:53:46.236Z,1.25
2022-12-06T11:56:27.515Z,1.00
2022-12-06T11:59:08.888Z,0.00
2022-12-06T12:01:42.578Z,0.00
2022-12-06T12:04:35.085Z,1.00
2022-12-06T12:07:10.431Z,1.00
2022-12-06T12:09:54.105Z,0.00
2022-12-06T12:12:45.842Z,0.00
2022-12-06T12:15:19.838Z,0.00
2022-12-06T12:17:50.379Z,0.00
2022-12-06T12:20:34.145Z,0.00
2022-12-06T12:23:05.757Z,0.00
2022-12-06T12:25:35.353Z,0.00
2022-12-06T12:28:04.600Z,0.00
2022-12-06T12:30:37.670Z,0.00
2022-12-06T12:33:07.624Z,0.00
2022-12-06T12:35:40.973Z,0.00
2022-12-06T12:38:10.799Z,0.00
2022-12-06T12:40:46.831Z,0.00
2022-12-06T12:43:13.655Z,0.00
2022-12-06T12:46:08.023Z,0.00
2022-12-06T12:48:35.989Z,0.00
2022-12-06T12:51:20.392Z,0.00
2022-12-06T12:53:49.602Z,0.00
2022-12-06T12:56:19.400Z,0.00
2022-12-06T12:58:56.211Z,0.00
2022-12-06T13:01:30.969Z,0.00
2022-12-06T13:04:06.052Z,0.00
2022-12-06T13:07:10.308Z,0.00
2022-12-06T13:10:01.360Z,0.00
2022-12-06T13:12:54.267Z,0.00
2022-12-06T13:15:29.357Z,0.00
2022-12-06T13:18:01.179Z,0.00
2022-12-06T13:20:34.732Z,0.00
2022-12-06T13:23:06.482Z,0.00
2022-12-06T13:25:33.606Z,0.00
2022-12-06T13:28:05.764Z,0.00
2022-12-06T13:30:36.721Z,0.00
2022-12-06T13:33:26.011Z,0.00
2022-12-06T13:36:18.920Z,0.25
2022-12-06T13:38:45.999Z,0.00
2022-12-06T13:41:15.077Z,1.00
2022-12-06T13:43:49.910Z,0.00
2022-12-06T13:46:22.178Z,1.00
2022-12-06T13:48:52.593Z,1.00
2022-12-06T13:51:31.839Z,1.00
2022-12-06T13:54:18.958Z,1.00
2022-12-06T13:56:46.175Z,0.75
2022-12-06T13:59:13.212Z,0.00
2022-12-06T14:01:49.817Z,0.00
2022-12-06T14:09:40.055Z,0.25
2022-12-06T14:12:28.822Z,0.25
2022-12-06T14:15:07.017Z,1.00
2022-12-06T14:20:32.117Z,1.00
2022-12-06T14:22:59.292Z,1.00
2022-12-06T14:25:29.918Z,2.00
2022-12-06T14:28:06.714Z,4.00
2022-12-06T14:30:34.478Z,7.00
2022-12-06T14:33:01.915Z,6.00
2022-12-06T14:35:37.160Z,4.50
2022-12-06T14:38:26.794Z,5.00
2022-12-06T14:41:12.672Z,2.00
2022-12-06T14:43:42.307Z,1.50
2022-12-06T14:46:15.199Z,0.75
2022-12-06T14:49:02.768Z,0.50
2022-12-06T14:51:38.883Z,0.50
2022-12-06T14:54:35.371Z,0.00
2022-12-06T14:57:04.002Z,0.00
2022-12-06T15:00:13.552Z,1.00
2022-12-06T15:02:29.103Z,2.00
2022-12-06T15:04:56.347Z,5.00
2022-12-06T15:07:41.808Z,0.00
2022-12-06T15:10:32.898Z,5.00
2022-12-06T15:13:15.809Z,8.75
2022-12-06T15:15:46.321Z,11.25
2022-12-06T15:18:26.299Z,10.00
2022-12-06T15:20:54.398Z,3.00
2022-12-06T15:23:36.592Z,5.75
2022-12-06T15:26:05.364Z,4.00
2022-12-06T15:28:32.609Z,3.00
2022-12-06T15:30:59.809Z,2.75
2022-12-06T15:33:27.577Z,2.75
2022-12-06T15:35:54.772Z,2.00
2022-12-06T15:38:22.041Z,2.50
2022-12-06T15:40:51.087Z,2.00
2022-12-06T15:43:34.725Z,1.50
2022-12-06T15:46:03.764Z,1.00
2022-12-06T15:48:34.917Z,2.50
2022-12-06T15:51:01.962Z,2.00
2022-12-06T15:53:29.587Z,3.00
2022-12-06T15:55:57.306Z,2.00
2022-12-06T15:58:24.280Z,1.00
2022-12-06T16:00:51.304Z,2.25
2022-12-06T16:03:18.612Z,2.00
2022-12-06T16:05:45.844Z,1.00
2022-12-06T16:08:12.949Z,1.00
2022-12-06T16:11:10.398Z,3.00
2022-12-06T16:13:26.911Z,7.00
2022-12-06T16:15:53.992Z,4.50
2022-12-06T16:18:21.041Z,3.50
2022-12-06T16:20:48.186Z,3.00
2022-12-06T16:24:11.361Z,4.50
2022-12-06T16:26:28.706Z,6.00
2022-12-06T16:28:56.664Z,5.50
2022-12-06T16:31:23.803Z,5.00
2022-12-06T16:33:50.840Z,8.75
2022-12-06T16:36:28.867Z,10.75
2022-12-06T16:38:59.130Z,9.00
2022-12-06T16:41:28.902Z,5.75
2022-12-06T16:43:57.081Z,6.00
2022-12-06T16:46:35.880Z,14.50
2022-12-06T16:49:37.227Z,11.00
2022-12-06T16:51:53.253Z,9.00
2022-12-06T16:54:20.637Z,9.00
2022-12-06T16:56:47.618Z,17.00
2022-12-06T16:59:16.136Z,13.00
2022-12-06T17:01:55.280Z,20.25
2022-12-06T17:04:22.786Z,10.00
2022-12-06T17:06:50.069Z,8.00
2022-12-06T17:09:17.332Z,3.00
2022-12-06T17:12:03.205Z,7.50
2022-12-06T17:14:30.533Z,6.25
2022-12-06T17:17:00.489Z,10.00
2022-12-06T17:19:28.537Z,8.25
2022-12-06T17:21:56.179Z,13.50
2022-12-06T17:24:25.703Z,13.25
2022-12-06T17:26:54.393Z,11.75
2022-12-06T17:29:23.827Z,18.00
2022-12-06T17:31:52.162Z,14.75
2022-12-06T17:34:20.244Z,14.50
2022-12-06T17:36:48.143Z,16.25
2022-12-06T17:39:19.223Z,13.00
2022-12-06T17:42:05.350Z,20.50
2022-12-06T17:44:32.960Z,14.33
2022-12-06T17:47:00.335Z,15.00
2022-12-06T17:49:28.117Z,17.50
2022-12-06T17:51:55.566Z,14.00
2022-12-06T17:54:22.472Z,17.25
2022-12-06T17:56:51.549Z,22.00
2022-12-06T17:59:21.246Z,17.25
2022-12-06T18:04:36.811Z,14.00
2022-12-06T18:07:03.786Z,15.00
2022-12-06T18:09:30.681Z,12.00
2022-12-06T18:11:57.709Z,8.50
2022-12-06T18:14:24.618Z,9.75
2022-12-06T18:16:51.631Z,8.00
2022-12-06T18:19:21.138Z,6.00
2022-12-06T18:21:49.166Z,5.50
2022-12-06T18:24:22.613Z,5.50
2022-12-06T18:26:52.079Z,3.25
2022-12-06T18:29:22.099Z,2.50
2022-12-06T18:31:49.811Z,4.50
2022-12-06T18:34:17.453Z,3.25
2022-12-06T18:36:44.638Z,2.00
2022-12-06T18:39:15.872Z,3.00
2022-12-06T18:41:45.980Z,2.00
2022-12-06T18:44:13.932Z,6.75
2022-12-06T18:46:42.888Z,2.00
2022-12-06T18:49:12.367Z,9.00
2022-12-06T18:51:39.819Z,15.00
2022-12-06T18:54:08.255Z,14.50
2022-12-06T18:56:36.092Z,9.50
2022-12-06T18:59:06.612Z,9.00
2022-12-06T19:01:37.136Z,7.00
2022-12-06T19:04:05.913Z,7.50
2022-12-06T19:06:35.928Z,13.00
2022-12-06T19:09:22.659Z,12.00
2022-12-06T19:11:49.826Z,13.00
2022-12-06T19:14:17.048Z,14.00
2022-12-06T19:16:48.922Z,7.00
2022-12-06T19:19:22.756Z,10.25
2022-12-06T19:21:52.003Z,8.50
2022-12-06T19:24:22.377Z,6.00
2022-12-06T19:26:51.749Z,4.25
2022-12-06T19:29:19.017Z,5.00
2022-12-06T19:31:46.281Z,7.00
2022-12-06T19:34:19.431Z,5.00
2022-12-06T19:36:48.332Z,3.75
2022-12-06T19:39:15.266Z,2.25
2022-12-06T19:42:01.261Z,2.00
2022-12-06T19:44:29.039Z,1.25
2022-12-06T19:46:56.888Z,2.00
2022-12-06T19:49:25.875Z,3.25
2022-12-06T19:51:53.030Z,1.75
2022-12-06T19:54:22.965Z,2.00
2022-12-06T19:56:53.337Z,0.00
2022-12-06T19:59:25.848Z,1.25
2022-12-06T20:01:54.597Z,1.25
2022-12-06T20:04:24.116Z,1.00
2022-12-06T20:06:52.492Z,1.00
2022-12-06T20:09:22.254Z,0.50
2022-12-06T20:12:02.301Z,0.00
2022-12-06T20:14:46.476Z,0.00
2022-12-06T20:17:19.670Z,0.00
2022-12-06T20:19:46.868Z,1.00
2022-12-06T20:22:14.900Z,0.50
2022-12-06T20:24:42.331Z,1.00
2022-12-06T20:27:10.027Z,0.00
2022-12-06T20:29:36.922Z,0.00
2022-12-06T20:32:04.828Z,0.25
2022-12-06T20:34:34.970Z,0.00
2022-12-06T20:37:04.883Z,0.00
2022-12-06T20:39:38.541Z,0.00
2022-12-06T20:42:07.245Z,0.00
2022-12-06T20:44:35.801Z,0.25
2022-12-06T20:47:03.072Z,0.00
2022-12-06T20:49:30.208Z,0.25
2022-12-06T20:51:58.361Z,0.00
2022-12-06T20:54:25.483Z,0.00
2022-12-06T20:56:53.678Z,0.00
2022-12-06T20:59:21.538Z,0.00
2022-12-06T21:01:48.799Z,0.00
2022-12-06T21:04:16.796Z,0.00
2022-12-06T21:06:43.825Z,0.00
2022-12-06T21:09:11.027Z,0.00
2022-12-06T21:11:38.142Z,0.00
2022-12-06T21:14:06.151Z,0.00
2022-12-06T21:16:35.278Z,0.00
2022-12-06T21:19:05.202Z,0.00
2022-12-06T21:21:38.082Z,0.00
2022-12-06T21:24:07.654Z,0.00
2022-12-06T21:26:35.302Z,1.00
2022-12-06T21:29:02.675Z,0.00
2022-12-06T21:31:31.965Z,0.00
2022-12-06T21:33:59.444Z,0.00
2022-12-06T21:36:26.579Z,1.00
2022-12-06T21:38:54.396Z,0.25
2022-12-06T21:41:22.091Z,0.00
2022-12-06T21:43:49.332Z,0.00
2022-12-06T21:46:20.189Z,0.00
2022-12-06T21:48:51.674Z,1.00
2022-12-06T21:51:19.505Z,0.00
2022-12-06T21:53:46.433Z,0.00
2022-12-06T21:56:19.349Z,2.00
2022-12-06T21:58:47.541Z,0.00
2022-12-06T22:01:18.053Z,0.00
2022-12-06T22:03:48.703Z,0.00
2022-12-06T22:06:16.120Z,0.00
2022-12-06T22:08:44.637Z,0.75
2022-12-06T22:11:14.554Z,1.00
2022-12-06T22:13:42.835Z,0.00
2022-12-06T22:16:11.633Z,1.00
2022-12-06T22:18:45.510Z,0.50
2022-12-06T22:21:22.364Z,0.25
2022-12-06T22:23:49.269Z,1.00
2022-12-06T22:26:18.806Z,1.00
2022-12-06T22:28:46.726Z,1.75
2022-12-06T22:31:25.421Z,0.75
2022-12-06T22:33:53.545Z,0.00
2022-12-06T22:36:21.765Z,0.50
2022-12-06T22:38:50.695Z,1.00
2022-12-06T22:41:18.874Z,1.00
2022-12-06T22:43:46.309Z,0.75
2022-12-06T22:46:15.663Z,1.75
2022-12-06T22:48:43.658Z,2.00
2022-12-06T22:51:23.555Z,1.25
2022-12-06T22:53:56.348Z,0.25
2022-12-06T22:56:24.281Z,1.00
2022-12-06T22:58:59.417Z,1.50
2022-12-06T23:01:29.597Z,2.00
2022-12-06T23:03:58.885Z,0.25
2022-12-06T23:06:26.563Z,0.75
2022-12-06T23:08:54.475Z,1.00
2022-12-06T23:11:30.648Z,0.50
2022-12-06T23:13:58.378Z,0.00
2022-12-06T23:16:27.830Z,1.50
2022-12-06T23:18:55.453Z,2.50
2022-12-06T23:21:25.573Z,4.25
2022-12-06T23:23:58.486Z,2.00
2022-12-06T23:26:34.380Z,1.00
2022-12-06T23:29:01.694Z,2.00
2022-12-06T23:31:31.369Z,1.25
2022-12-06T23:34:03.979Z,1.00
2022-12-06T23:36:33.153Z,1.00
2022-12-06T23:39:00.384Z,0.00
2022-12-06T23:41:29.503Z,0.75
2022-12-06T23:43:57.739Z,1.00
2022-12-06T23:46:27.770Z,1.00
2022-12-06T23:48:56.103Z,1.00
2022-12-06T23:51:31.253Z,1.00
2022-12-06T23:53:59.643Z,1.00
2022-12-06T23:56:30.198Z,1.00
2022-12-06T23:58:57.781Z,1.00
